sensor_id;sensor_type;location;lat;lon;timestamp;P1;durP1;ratioP1;P2;durP2;ratioP2
65045;SDS011;54657;52.022;5.534;2023-04-05T00:00:30;9.15;;;6.28;;
65045;SDS011;54657;52.022;5.534;2023-04-05T00:02:56;7.60;;;5.10;;
65045;SDS011;54657;52.022;5.534;2023-04-05T00:05:24;8.77;;;5.20;;
65045;SDS011;54657;52.022;5.534;2023-04-05T00:07:57;6.50;;;4.97;;
65045;SDS011;54657;52.022;5.534;2023-04-05T00:10:24;6.22;;;5.30;;
65045;SDS011;54657;52.022;5.534;2023-04-05T00:12:51;11.65;;;5.93;;
65045;SDS011;54657;52.022;5.534;2023-04-05T00:15:16;8.18;;;5.63;;
65045;SDS011;54657;52.022;5.534;2023-04-05T00:17:43;7.43;;;5.68;;
65045;SDS011;54657;52.022;5.534;2023-04-05T00:20:10;7.38;;;5.63;;
65045;SDS011;54657;52.022;5.534;2023-04-05T00:22:36;11.88;;;6.00;;
65045;SDS011;54657;52.022;5.534;2023-04-05T00:25:03;9.18;;;5.25;;
65045;SDS011;54657;52.022;5.534;2023-04-05T00:27:29;9.23;;;5.78;;
65045;SDS011;54657;52.022;5.534;2023-04-05T00:29:55;6.43;;;4.70;;
65045;SDS011;54657;52.022;5.534;2023-04-05T00:32:20;9.85;;;5.53;;
65045;SDS011;54657;52.022;5.534;2023-04-05T00:34:46;7.05;;;5.15;;
65045;SDS011;54657;52.022;5.534;2023-04-05T00:37:12;8.25;;;5.30;;
65045;SDS011;54657;52.022;5.534;2023-04-05T00:39:38;7.13;;;4.60;;
65045;SDS011;54657;52.022;5.534;2023-04-05T00:42:04;7.38;;;4.65;;
65045;SDS011;54657;52.022;5.534;2023-04-05T00:44:30;7.90;;;5.38;;
65045;SDS011;54657;52.022;5.534;2023-04-05T00:47:08;5.47;;;4.38;;
65045;SDS011;54657;52.022;5.534;2023-04-05T00:49:34;7.47;;;5.13;;
65045;SDS011;54657;52.022;5.534;2023-04-05T00:52:00;7.90;;;5.13;;
65045;SDS011;54657;52.022;5.534;2023-04-05T00:54:28;9.57;;;5.25;;
65045;SDS011;54657;52.022;5.534;2023-04-05T00:56:54;7.40;;;5.85;;
65045;SDS011;54657;52.022;5.534;2023-04-05T00:59:26;9.35;;;5.72;;
65045;SDS011;54657;52.022;5.534;2023-04-05T01:02:05;8.15;;;5.68;;
65045;SDS011;54657;52.022;5.534;2023-04-05T01:04:37;8.23;;;5.38;;
65045;SDS011;54657;52.022;5.534;2023-04-05T01:07:24;8.90;;;6.32;;
65045;SDS011;54657;52.022;5.534;2023-04-05T01:09:55;8.73;;;5.88;;
65045;SDS011;54657;52.022;5.534;2023-04-05T01:12:23;7.38;;;5.40;;
65045;SDS011;54657;52.022;5.534;2023-04-05T01:14:53;8.20;;;5.25;;
65045;SDS011;54657;52.022;5.534;2023-04-05T01:17:23;9.50;;;5.80;;
65045;SDS011;54657;52.022;5.534;2023-04-05T01:20:00;9.77;;;5.43;;
65045;SDS011;54657;52.022;5.534;2023-04-05T01:22:37;9.45;;;6.00;;
65045;SDS011;54657;52.022;5.534;2023-04-05T01:30:31;8.93;;;5.20;;
65045;SDS011;54657;52.022;5.534;2023-04-05T01:38:24;11.85;;;5.93;;
65045;SDS011;54657;52.022;5.534;2023-04-05T01:40:54;8.88;;;5.82;;
65045;SDS011;54657;52.022;5.534;2023-04-05T01:43:20;7.60;;;5.45;;
65045;SDS011;54657;52.022;5.534;2023-04-05T01:45:45;9.32;;;6.15;;
65045;SDS011;54657;52.022;5.534;2023-04-05T01:48:12;9.30;;;5.93;;
65045;SDS011;54657;52.022;5.534;2023-04-05T01:50:38;8.95;;;5.70;;
65045;SDS011;54657;52.022;5.534;2023-04-05T01:53:06;9.50;;;5.97;;
65045;SDS011;54657;52.022;5.534;2023-04-05T01:55:32;9.25;;;5.63;;
65045;SDS011;54657;52.022;5.534;2023-04-05T01:57:58;9.18;;;5.65;;
65045;SDS011;54657;52.022;5.534;2023-04-05T02:00:23;8.80;;;5.70;;
65045;SDS011;54657;52.022;5.534;2023-04-05T02:02:49;9.07;;;5.70;;
65045;SDS011;54657;52.022;5.534;2023-04-05T02:05:17;10.75;;;6.47;;
65045;SDS011;54657;52.022;5.534;2023-04-05T02:07:43;9.07;;;6.15;;
65045;SDS011;54657;52.022;5.534;2023-04-05T02:10:09;10.15;;;5.60;;
65045;SDS011;54657;52.022;5.534;2023-04-05T02:12:34;7.65;;;5.80;;
65045;SDS011;54657;52.022;5.534;2023-04-05T02:15:00;8.60;;;6.18;;
65045;SDS011;54657;52.022;5.534;2023-04-05T02:17:26;7.38;;;6.03;;
65045;SDS011;54657;52.022;5.534;2023-04-05T02:20:07;8.05;;;5.38;;
65045;SDS011;54657;52.022;5.534;2023-04-05T02:22:34;8.48;;;5.57;;
65045;SDS011;54657;52.022;5.534;2023-04-05T02:25:03;7.13;;;5.65;;
65045;SDS011;54657;52.022;5.534;2023-04-05T02:27:29;8.43;;;5.45;;
65045;SDS011;54657;52.022;5.534;2023-04-05T02:29:56;10.55;;;6.47;;
65045;SDS011;54657;52.022;5.534;2023-04-05T02:32:23;10.18;;;6.53;;
65045;SDS011;54657;52.022;5.534;2023-04-05T02:34:49;8.45;;;5.53;;
65045;SDS011;54657;52.022;5.534;2023-04-05T02:37:16;9.13;;;6.43;;
65045;SDS011;54657;52.022;5.534;2023-04-05T02:39:42;9.23;;;6.38;;
65045;SDS011;54657;52.022;5.534;2023-04-05T02:42:08;8.80;;;5.55;;
65045;SDS011;54657;52.022;5.534;2023-04-05T02:44:34;9.85;;;5.90;;
65045;SDS011;54657;52.022;5.534;2023-04-05T02:46:59;11.18;;;6.20;;
65045;SDS011;54657;52.022;5.534;2023-04-05T02:49:25;10.68;;;6.10;;
65045;SDS011;54657;52.022;5.534;2023-04-05T02:51:51;8.27;;;5.90;;
65045;SDS011;54657;52.022;5.534;2023-04-05T02:54:17;8.27;;;5.80;;
65045;SDS011;54657;52.022;5.534;2023-04-05T02:56:42;9.13;;;6.20;;
65045;SDS011;54657;52.022;5.534;2023-04-05T02:59:08;7.18;;;5.40;;
65045;SDS011;54657;52.022;5.534;2023-04-05T03:01:34;10.25;;;5.88;;
65045;SDS011;54657;52.022;5.534;2023-04-05T03:04:00;7.72;;;5.65;;
65045;SDS011;54657;52.022;5.534;2023-04-05T03:06:29;11.05;;;6.68;;
65045;SDS011;54657;52.022;5.534;2023-04-05T03:08:55;7.40;;;5.95;;
65045;SDS011;54657;52.022;5.534;2023-04-05T03:11:21;10.23;;;5.45;;
65045;SDS011;54657;52.022;5.534;2023-04-05T03:13:46;9.38;;;5.70;;
65045;SDS011;54657;52.022;5.534;2023-04-05T03:16:12;13.48;;;6.60;;
65045;SDS011;54657;52.022;5.534;2023-04-05T03:18:38;10.57;;;5.65;;
65045;SDS011;54657;52.022;5.534;2023-04-05T03:21:03;10.02;;;6.20;;
65045;SDS011;54657;52.022;5.534;2023-04-05T03:23:30;6.82;;;5.82;;
65045;SDS011;54657;52.022;5.534;2023-04-05T03:28:22;9.90;;;6.28;;
65045;SDS011;54657;52.022;5.534;2023-04-05T03:30:48;8.23;;;5.65;;
65045;SDS011;54657;52.022;5.534;2023-04-05T03:33:14;9.85;;;6.75;;
65045;SDS011;54657;52.022;5.534;2023-04-05T03:35:40;9.50;;;6.38;;
65045;SDS011;54657;52.022;5.534;2023-04-05T03:38:06;9.35;;;5.85;;
65045;SDS011;54657;52.022;5.534;2023-04-05T03:40:31;10.45;;;5.95;;
65045;SDS011;54657;52.022;5.534;2023-04-05T03:42:57;10.52;;;6.18;;
65045;SDS011;54657;52.022;5.534;2023-04-05T03:45:22;11.23;;;5.55;;
65045;SDS011;54657;52.022;5.534;2023-04-05T03:47:49;8.48;;;5.78;;
65045;SDS011;54657;52.022;5.534;2023-04-05T03:50:14;8.98;;;6.40;;
65045;SDS011;54657;52.022;5.534;2023-04-05T03:52:40;10.88;;;5.78;;
65045;SDS011;54657;52.022;5.534;2023-04-05T03:55:06;9.50;;;5.70;;
65045;SDS011;54657;52.022;5.534;2023-04-05T03:57:32;6.97;;;5.85;;
65045;SDS011;54657;52.022;5.534;2023-04-05T03:59:58;8.15;;;5.68;;
65045;SDS011;54657;52.022;5.534;2023-04-05T04:02:24;8.40;;;5.72;;
65045;SDS011;54657;52.022;5.534;2023-04-05T04:04:49;7.65;;;5.72;;
65045;SDS011;54657;52.022;5.534;2023-04-05T04:07:17;8.52;;;5.05;;
65045;SDS011;54657;52.022;5.534;2023-04-05T04:09:43;8.00;;;5.85;;
65045;SDS011;54657;52.022;5.534;2023-04-05T04:12:09;8.00;;;5.10;;
65045;SDS011;54657;52.022;5.534;2023-04-05T04:14:35;8.23;;;5.90;;
65045;SDS011;54657;52.022;5.534;2023-04-05T04:17:00;9.73;;;5.72;;
65045;SDS011;54657;52.022;5.534;2023-04-05T04:19:27;11.25;;;6.03;;
65045;SDS011;54657;52.022;5.534;2023-04-05T04:21:52;9.23;;;5.63;;
65045;SDS011;54657;52.022;5.534;2023-04-05T04:24:19;7.68;;;5.85;;
65045;SDS011;54657;52.022;5.534;2023-04-05T04:26:46;11.00;;;6.55;;
65045;SDS011;54657;52.022;5.534;2023-04-05T04:29:12;8.65;;;5.93;;
65045;SDS011;54657;52.022;5.534;2023-04-05T04:31:40;8.65;;;5.70;;
65045;SDS011;54657;52.022;5.534;2023-04-05T04:34:10;10.82;;;6.55;;
65045;SDS011;54657;52.022;5.534;2023-04-05T04:36:36;10.98;;;6.40;;
65045;SDS011;54657;52.022;5.534;2023-04-05T04:39:07;8.10;;;5.55;;
65045;SDS011;54657;52.022;5.534;2023-04-05T04:41:34;9.15;;;5.53;;
65045;SDS011;54657;52.022;5.534;2023-04-05T04:44:00;8.05;;;6.00;;
65045;SDS011;54657;52.022;5.534;2023-04-05T04:46:31;9.65;;;5.40;;
65045;SDS011;54657;52.022;5.534;2023-04-05T04:49:06;8.38;;;5.57;;
65045;SDS011;54657;52.022;5.534;2023-04-05T04:51:32;9.02;;;5.55;;
65045;SDS011;54657;52.022;5.534;2023-04-05T04:53:58;7.07;;;5.18;;
65045;SDS011;54657;52.022;5.534;2023-04-05T04:56:23;8.43;;;5.70;;
65045;SDS011;54657;52.022;5.534;2023-04-05T04:58:49;7.90;;;4.85;;
65045;SDS011;54657;52.022;5.534;2023-04-05T05:01:17;9.18;;;5.72;;
65045;SDS011;54657;52.022;5.534;2023-04-05T05:03:42;9.05;;;5.38;;
65045;SDS011;54657;52.022;5.534;2023-04-05T05:06:08;8.27;;;5.13;;
65045;SDS011;54657;52.022;5.534;2023-04-05T05:08:33;7.32;;;5.00;;
65045;SDS011;54657;52.022;5.534;2023-04-05T05:10:59;6.68;;;5.57;;
65045;SDS011;54657;52.022;5.534;2023-04-05T05:13:25;9.05;;;5.53;;
65045;SDS011;54657;52.022;5.534;2023-04-05T05:15:50;8.40;;;5.32;;
65045;SDS011;54657;52.022;5.534;2023-04-05T05:18:16;8.60;;;5.70;;
65045;SDS011;54657;52.022;5.534;2023-04-05T05:20:42;9.80;;;5.90;;
65045;SDS011;54657;52.022;5.534;2023-04-05T05:23:08;10.52;;;6.03;;
65045;SDS011;54657;52.022;5.534;2023-04-05T05:25:33;8.50;;;5.22;;
65045;SDS011;54657;52.022;5.534;2023-04-05T05:27:59;8.43;;;5.40;;
65045;SDS011;54657;52.022;5.534;2023-04-05T05:30:25;8.75;;;6.00;;
65045;SDS011;54657;52.022;5.534;2023-04-05T05:32:51;9.35;;;5.50;;
65045;SDS011;54657;52.022;5.534;2023-04-05T05:35:16;10.32;;;6.32;;
65045;SDS011;54657;52.022;5.534;2023-04-05T05:37:42;8.40;;;5.93;;
65045;SDS011;54657;52.022;5.534;2023-04-05T05:40:08;8.07;;;5.50;;
65045;SDS011;54657;52.022;5.534;2023-04-05T05:42:37;8.05;;;5.63;;
65045;SDS011;54657;52.022;5.534;2023-04-05T05:45:03;7.40;;;5.68;;
65045;SDS011;54657;52.022;5.534;2023-04-05T05:47:30;10.00;;;5.43;;
65045;SDS011;54657;52.022;5.534;2023-04-05T05:49:56;8.65;;;5.88;;
65045;SDS011;54657;52.022;5.534;2023-04-05T05:52:21;11.77;;;5.82;;
65045;SDS011;54657;52.022;5.534;2023-04-05T05:54:48;10.48;;;5.65;;
65045;SDS011;54657;52.022;5.534;2023-04-05T05:57:13;12.27;;;6.15;;
65045;SDS011;54657;52.022;5.534;2023-04-05T05:59:39;11.30;;;5.88;;
65045;SDS011;54657;52.022;5.534;2023-04-05T06:02:05;7.18;;;6.00;;
65045;SDS011;54657;52.022;5.534;2023-04-05T06:04:31;7.90;;;5.53;;
65045;SDS011;54657;52.022;5.534;2023-04-05T06:06:58;7.53;;;5.20;;
65045;SDS011;54657;52.022;5.534;2023-04-05T06:09:27;7.35;;;5.00;;
65045;SDS011;54657;52.022;5.534;2023-04-05T06:11:53;8.52;;;5.57;;
65045;SDS011;54657;52.022;5.534;2023-04-05T06:14:18;9.35;;;5.97;;
65045;SDS011;54657;52.022;5.534;2023-04-05T06:16:44;10.38;;;6.55;;
65045;SDS011;54657;52.022;5.534;2023-04-05T06:19:10;9.95;;;5.80;;
65045;SDS011;54657;52.022;5.534;2023-04-05T06:21:36;9.43;;;6.45;;
65045;SDS011;54657;52.022;5.534;2023-04-05T06:24:01;9.30;;;6.03;;
65045;SDS011;54657;52.022;5.534;2023-04-05T06:26:27;8.73;;;5.57;;
65045;SDS011;54657;52.022;5.534;2023-04-05T06:28:54;10.15;;;5.30;;
65045;SDS011;54657;52.022;5.534;2023-04-05T06:31:25;8.55;;;5.97;;
65045;SDS011;54657;52.022;5.534;2023-04-05T06:33:51;9.80;;;6.53;;
65045;SDS011;54657;52.022;5.534;2023-04-05T06:36:17;7.72;;;5.50;;
65045;SDS011;54657;52.022;5.534;2023-04-05T06:38:42;7.63;;;5.60;;
65045;SDS011;54657;52.022;5.534;2023-04-05T06:41:08;10.85;;;5.70;;
65045;SDS011;54657;52.022;5.534;2023-04-05T06:43:33;9.20;;;5.68;;
65045;SDS011;54657;52.022;5.534;2023-04-05T06:45:59;8.68;;;6.18;;
65045;SDS011;54657;52.022;5.534;2023-04-05T06:48:25;9.25;;;5.82;;
65045;SDS011;54657;52.022;5.534;2023-04-05T06:50:59;10.70;;;5.70;;
65045;SDS011;54657;52.022;5.534;2023-04-05T06:53:26;7.45;;;5.93;;
65045;SDS011;54657;52.022;5.534;2023-04-05T06:55:55;8.57;;;6.45;;
65045;SDS011;54657;52.022;5.534;2023-04-05T06:58:22;9.18;;;5.43;;
65045;SDS011;54657;52.022;5.534;2023-04-05T07:00:49;8.43;;;5.70;;
65045;SDS011;54657;52.022;5.534;2023-04-05T07:03:15;9.90;;;6.55;;
65045;SDS011;54657;52.022;5.534;2023-04-05T07:05:48;10.55;;;6.70;;
65045;SDS011;54657;52.022;5.534;2023-04-05T07:08:18;9.82;;;6.70;;
65045;SDS011;54657;52.022;5.534;2023-04-05T07:10:47;10.63;;;7.28;;
65045;SDS011;54657;52.022;5.534;2023-04-05T07:13:14;15.57;;;6.97;;
65045;SDS011;54657;52.022;5.534;2023-04-05T07:15:41;13.52;;;8.27;;
65045;SDS011;54657;52.022;5.534;2023-04-05T07:18:07;12.20;;;7.60;;
65045;SDS011;54657;52.022;5.534;2023-04-05T07:20:32;12.32;;;6.82;;
65045;SDS011;54657;52.022;5.534;2023-04-05T07:22:58;10.13;;;6.40;;
65045;SDS011;54657;52.022;5.534;2023-04-05T07:25:24;9.73;;;6.10;;
65045;SDS011;54657;52.022;5.534;2023-04-05T07:27:49;11.85;;;6.38;;
65045;SDS011;54657;52.022;5.534;2023-04-05T07:30:16;11.85;;;6.88;;
65045;SDS011;54657;52.022;5.534;2023-04-05T07:32:42;10.70;;;6.10;;
65045;SDS011;54657;52.022;5.534;2023-04-05T07:35:07;11.93;;;7.07;;
65045;SDS011;54657;52.022;5.534;2023-04-05T07:37:33;10.80;;;5.97;;
65045;SDS011;54657;52.022;5.534;2023-04-05T07:39:59;12.00;;;6.03;;
65045;SDS011;54657;52.022;5.534;2023-04-05T07:42:25;8.35;;;5.60;;
65045;SDS011;54657;52.022;5.534;2023-04-05T07:44:52;11.93;;;5.55;;
65045;SDS011;54657;52.022;5.534;2023-04-05T07:47:17;13.13;;;5.88;;
65045;SDS011;54657;52.022;5.534;2023-04-05T07:49:43;8.65;;;5.47;;
65045;SDS011;54657;52.022;5.534;2023-04-05T07:52:09;11.40;;;5.95;;
65045;SDS011;54657;52.022;5.534;2023-04-05T07:54:35;9.40;;;5.40;;
65045;SDS011;54657;52.022;5.534;2023-04-05T07:57:03;7.43;;;5.78;;
65045;SDS011;54657;52.022;5.534;2023-04-05T07:59:31;13.10;;;5.85;;
65045;SDS011;54657;52.022;5.534;2023-04-05T08:01:56;7.88;;;4.80;;
65045;SDS011;54657;52.022;5.534;2023-04-05T08:04:22;6.47;;;5.05;;
65045;SDS011;54657;52.022;5.534;2023-04-05T08:06:50;11.15;;;5.47;;
65045;SDS011;54657;52.022;5.534;2023-04-05T08:09:16;9.43;;;5.88;;
65045;SDS011;54657;52.022;5.534;2023-04-05T08:11:41;7.65;;;5.07;;
65045;SDS011;54657;52.022;5.534;2023-04-05T08:14:07;10.23;;;5.47;;
65045;SDS011;54657;52.022;5.534;2023-04-05T08:16:33;9.00;;;5.57;;
65045;SDS011;54657;52.022;5.534;2023-04-05T08:18:59;9.02;;;5.40;;
65045;SDS011;54657;52.022;5.534;2023-04-05T08:21:24;7.93;;;4.95;;
65045;SDS011;54657;52.022;5.534;2023-04-05T08:23:50;7.40;;;5.43;;
65045;SDS011;54657;52.022;5.534;2023-04-05T08:26:16;8.13;;;5.28;;
65045;SDS011;54657;52.022;5.534;2023-04-05T08:28:42;8.70;;;5.30;;
65045;SDS011;54657;52.022;5.534;2023-04-05T08:31:08;7.97;;;4.57;;
65045;SDS011;54657;52.022;5.534;2023-04-05T08:33:34;8.77;;;5.00;;
65045;SDS011;54657;52.022;5.534;2023-04-05T08:36:03;10.15;;;5.03;;
65045;SDS011;54657;52.022;5.534;2023-04-05T08:38:33;6.88;;;5.07;;
65045;SDS011;54657;52.022;5.534;2023-04-05T08:41:06;8.48;;;5.32;;
65045;SDS011;54657;52.022;5.534;2023-04-05T08:46:26;9.35;;;5.35;;
65045;SDS011;54657;52.022;5.534;2023-04-05T08:48:55;9.23;;;5.25;;
65045;SDS011;54657;52.022;5.534;2023-04-05T08:51:22;6.55;;;5.18;;
65045;SDS011;54657;52.022;5.534;2023-04-05T08:53:48;8.38;;;5.75;;
65045;SDS011;54657;52.022;5.534;2023-04-05T08:56:15;11.38;;;5.78;;
65045;SDS011;54657;52.022;5.534;2023-04-05T09:01:32;6.68;;;4.80;;
65045;SDS011;54657;52.022;5.534;2023-04-05T09:04:01;8.07;;;5.20;;
65045;SDS011;54657;52.022;5.534;2023-04-05T09:06:38;9.35;;;5.20;;
65045;SDS011;54657;52.022;5.534;2023-04-05T09:09:07;6.50;;;4.95;;
65045;SDS011;54657;52.022;5.534;2023-04-05T09:11:33;6.85;;;5.03;;
65045;SDS011;54657;52.022;5.534;2023-04-05T09:14:03;8.60;;;5.43;;
65045;SDS011;54657;52.022;5.534;2023-04-05T09:16:31;6.65;;;4.95;;
65045;SDS011;54657;52.022;5.534;2023-04-05T09:19:00;6.75;;;4.00;;
65045;SDS011;54657;52.022;5.534;2023-04-05T09:21:26;7.20;;;5.13;;
65045;SDS011;54657;52.022;5.534;2023-04-05T09:23:53;7.72;;;5.00;;
65045;SDS011;54657;52.022;5.534;2023-04-05T09:26:20;6.88;;;4.68;;
65045;SDS011;54657;52.022;5.534;2023-04-05T09:28:47;6.70;;;4.47;;
65045;SDS011;54657;52.022;5.534;2023-04-05T09:31:32;5.13;;;4.63;;
65045;SDS011;54657;52.022;5.534;2023-04-05T09:34:00;6.18;;;4.20;;
65045;SDS011;54657;52.022;5.534;2023-04-05T09:36:30;6.53;;;4.32;;
65045;SDS011;54657;52.022;5.534;2023-04-05T09:39:07;5.57;;;4.00;;
65045;SDS011;54657;52.022;5.534;2023-04-05T09:41:34;6.45;;;4.20;;
65045;SDS011;54657;52.022;5.534;2023-04-05T09:44:00;6.72;;;4.90;;
65045;SDS011;54657;52.022;5.534;2023-04-05T09:46:33;7.88;;;5.00;;
65045;SDS011;54657;52.022;5.534;2023-04-05T09:49:01;7.63;;;5.32;;
65045;SDS011;54657;52.022;5.534;2023-04-05T09:51:34;7.32;;;4.80;;
65045;SDS011;54657;52.022;5.534;2023-04-05T09:54:05;6.40;;;4.38;;
65045;SDS011;54657;52.022;5.534;2023-04-05T09:56:37;7.43;;;5.10;;
65045;SDS011;54657;52.022;5.534;2023-04-05T09:59:07;8.30;;;5.35;;
65045;SDS011;54657;52.022;5.534;2023-04-05T10:01:35;11.52;;;5.60;;
65045;SDS011;54657;52.022;5.534;2023-04-05T10:04:01;6.45;;;5.30;;
65045;SDS011;54657;52.022;5.534;2023-04-05T10:06:37;6.07;;;4.70;;
65045;SDS011;54657;52.022;5.534;2023-04-05T10:09:04;6.95;;;5.13;;
65045;SDS011;54657;52.022;5.534;2023-04-05T10:11:31;7.90;;;5.03;;
65045;SDS011;54657;52.022;5.534;2023-04-05T10:14:02;8.82;;;5.60;;
65045;SDS011;54657;52.022;5.534;2023-04-05T10:16:29;5.13;;;4.63;;
65045;SDS011;54657;52.022;5.534;2023-04-05T10:18:58;5.80;;;5.00;;
65045;SDS011;54657;52.022;5.534;2023-04-05T10:21:27;6.65;;;5.70;;
65045;SDS011;54657;52.022;5.534;2023-04-05T10:24:38;7.50;;;5.30;;
65045;SDS011;54657;52.022;5.534;2023-04-05T10:27:04;6.55;;;5.15;;
65045;SDS011;54657;52.022;5.534;2023-04-05T10:29:38;9.05;;;4.95;;
65045;SDS011;54657;52.022;5.534;2023-04-05T10:32:14;6.90;;;5.32;;
65045;SDS011;54657;52.022;5.534;2023-04-05T10:35:33;6.32;;;5.72;;
65045;SDS011;54657;52.022;5.534;2023-04-05T10:40:16;6.63;;;5.20;;
65045;SDS011;54657;52.022;5.534;2023-04-05T10:42:46;7.78;;;5.32;;
65045;SDS011;54657;52.022;5.534;2023-04-05T10:45:12;7.50;;;5.65;;
65045;SDS011;54657;52.022;5.534;2023-04-05T10:47:53;8.77;;;5.25;;
65045;SDS011;54657;52.022;5.534;2023-04-05T10:50:26;7.45;;;5.30;;
65045;SDS011;54657;52.022;5.534;2023-04-05T10:52:52;6.78;;;5.43;;
65045;SDS011;54657;52.022;5.534;2023-04-05T10:55:17;7.75;;;5.38;;
65045;SDS011;54657;52.022;5.534;2023-04-05T10:57:44;6.43;;;5.60;;
65045;SDS011;54657;52.022;5.534;2023-04-05T11:00:11;7.60;;;5.20;;
65045;SDS011;54657;52.022;5.534;2023-04-05T11:02:39;8.52;;;5.35;;
65045;SDS011;54657;52.022;5.534;2023-04-05T11:05:05;6.78;;;5.28;;
65045;SDS011;54657;52.022;5.534;2023-04-05T11:07:51;7.10;;;4.65;;
65045;SDS011;54657;52.022;5.534;2023-04-05T11:10:20;6.57;;;5.50;;
65045;SDS011;54657;52.022;5.534;2023-04-05T11:18:03;6.72;;;5.10;;
65045;SDS011;54657;52.022;5.534;2023-04-05T11:20:38;8.48;;;5.13;;
65045;SDS011;54657;52.022;5.534;2023-04-05T11:23:16;7.07;;;4.97;;
65045;SDS011;54657;52.022;5.534;2023-04-05T11:25:47;6.72;;;5.53;;
65045;SDS011;54657;52.022;5.534;2023-04-05T11:28:34;5.20;;;4.68;;
65045;SDS011;54657;52.022;5.534;2023-04-05T11:31:13;7.07;;;5.00;;
65045;SDS011;54657;52.022;5.534;2023-04-05T11:36:09;6.85;;;5.32;;
65045;SDS011;54657;52.022;5.534;2023-04-05T11:38:35;6.82;;;4.97;;
65045;SDS011;54657;52.022;5.534;2023-04-05T11:41:10;6.72;;;5.07;;
65045;SDS011;54657;52.022;5.534;2023-04-05T11:43:44;8.23;;;5.22;;
65045;SDS011;54657;52.022;5.534;2023-04-05T11:46:16;5.90;;;5.10;;
65045;SDS011;54657;52.022;5.534;2023-04-05T11:48:42;6.13;;;4.78;;
65045;SDS011;54657;52.022;5.534;2023-04-05T11:51:13;6.45;;;5.35;;
65045;SDS011;54657;52.022;5.534;2023-04-05T11:53:41;7.03;;;4.90;;
65045;SDS011;54657;52.022;5.534;2023-04-05T11:56:10;6.82;;;5.50;;
65045;SDS011;54657;52.022;5.534;2023-04-05T11:58:39;7.00;;;5.13;;
65045;SDS011;54657;52.022;5.534;2023-04-05T12:01:06;6.40;;;5.28;;
65045;SDS011;54657;52.022;5.534;2023-04-05T12:03:33;5.95;;;5.07;;
65045;SDS011;54657;52.022;5.534;2023-04-05T12:06:00;5.68;;;4.85;;
65045;SDS011;54657;52.022;5.534;2023-04-05T12:08:37;7.05;;;4.75;;
65045;SDS011;54657;52.022;5.534;2023-04-05T12:11:09;8.68;;;4.90;;
65045;SDS011;54657;52.022;5.534;2023-04-05T12:13:36;8.68;;;4.95;;
65045;SDS011;54657;52.022;5.534;2023-04-05T12:16:03;7.93;;;5.20;;
65045;SDS011;54657;52.022;5.534;2023-04-05T12:18:31;7.65;;;5.20;;
65045;SDS011;54657;52.022;5.534;2023-04-05T12:20:58;5.90;;;4.85;;
65045;SDS011;54657;52.022;5.534;2023-04-05T12:23:26;5.70;;;5.00;;
65045;SDS011;54657;52.022;5.534;2023-04-05T12:25:53;7.95;;;5.35;;
65045;SDS011;54657;52.022;5.534;2023-04-05T12:28:23;6.97;;;5.13;;
65045;SDS011;54657;52.022;5.534;2023-04-05T12:33:28;6.10;;;5.45;;
65045;SDS011;54657;52.022;5.534;2023-04-05T12:35:56;6.82;;;5.32;;
65045;SDS011;54657;52.022;5.534;2023-04-05T12:38:24;7.75;;;5.15;;
65045;SDS011;54657;52.022;5.534;2023-04-05T12:40:51;8.40;;;5.22;;
65045;SDS011;54657;52.022;5.534;2023-04-05T12:43:18;6.38;;;5.10;;
65045;SDS011;54657;52.022;5.534;2023-04-05T12:45:44;5.82;;;5.22;;
65045;SDS011;54657;52.022;5.534;2023-04-05T12:48:11;6.88;;;5.35;;
65045;SDS011;54657;52.022;5.534;2023-04-05T12:50:45;6.05;;;4.88;;
65045;SDS011;54657;52.022;5.534;2023-04-05T12:53:16;6.82;;;5.22;;
65045;SDS011;54657;52.022;5.534;2023-04-05T12:55:46;6.60;;;5.13;;
65045;SDS011;54657;52.022;5.534;2023-04-05T12:58:17;5.88;;;4.88;;
65045;SDS011;54657;52.022;5.534;2023-04-05T13:00:47;7.82;;;5.68;;
65045;SDS011;54657;52.022;5.534;2023-04-05T13:03:19;6.18;;;5.57;;
65045;SDS011;54657;52.022;5.534;2023-04-05T13:05:45;7.63;;;5.30;;
65045;SDS011;54657;52.022;5.534;2023-04-05T13:08:15;7.22;;;5.15;;
65045;SDS011;54657;52.022;5.534;2023-04-05T13:10:42;6.97;;;5.20;;
65045;SDS011;54657;52.022;5.534;2023-04-05T13:13:12;7.43;;;5.57;;
65045;SDS011;54657;52.022;5.534;2023-04-05T13:15:39;6.07;;;4.90;;
65045;SDS011;54657;52.022;5.534;2023-04-05T13:18:04;7.93;;;5.43;;
65045;SDS011;54657;52.022;5.534;2023-04-05T13:20:30;8.07;;;4.95;;
65045;SDS011;54657;52.022;5.534;2023-04-05T13:22:56;6.88;;;5.22;;
65045;SDS011;54657;52.022;5.534;2023-04-05T13:25:22;8.15;;;5.10;;
65045;SDS011;54657;52.022;5.534;2023-04-05T13:27:48;7.03;;;5.32;;
65045;SDS011;54657;52.022;5.534;2023-04-05T13:30:14;7.07;;;4.97;;
65045;SDS011;54657;52.022;5.534;2023-04-05T13:32:40;6.50;;;5.10;;
65045;SDS011;54657;52.022;5.534;2023-04-05T13:35:06;8.20;;;5.20;;
65045;SDS011;54657;52.022;5.534;2023-04-05T13:37:32;9.35;;;5.45;;
65045;SDS011;54657;52.022;5.534;2023-04-05T13:39:58;7.20;;;5.07;;
65045;SDS011;54657;52.022;5.534;2023-04-05T13:42:23;8.52;;;5.60;;
65045;SDS011;54657;52.022;5.534;2023-04-05T13:44:49;7.45;;;4.60;;
65045;SDS011;54657;52.022;5.534;2023-04-05T13:47:15;5.85;;;5.18;;
65045;SDS011;54657;52.022;5.534;2023-04-05T13:49:41;8.13;;;4.97;;
65045;SDS011;54657;52.022;5.534;2023-04-05T13:52:07;7.47;;;5.13;;
65045;SDS011;54657;52.022;5.534;2023-04-05T13:54:33;6.18;;;5.25;;
65045;SDS011;54657;52.022;5.534;2023-04-05T13:56:59;5.95;;;5.25;;
65045;SDS011;54657;52.022;5.534;2023-04-05T13:59:24;7.07;;;4.70;;
65045;SDS011;54657;52.022;5.534;2023-04-05T14:05:23;11.32;;;4.78;;
65045;SDS011;54657;52.022;5.534;2023-04-05T14:08:05;5.43;;;4.60;;
65045;SDS011;54657;52.022;5.534;2023-04-05T14:10:34;9.40;;;5.65;;
65045;SDS011;54657;52.022;5.534;2023-04-05T14:13:00;7.00;;;5.18;;
65045;SDS011;54657;52.022;5.534;2023-04-05T14:15:25;7.40;;;5.28;;
65045;SDS011;54657;52.022;5.534;2023-04-05T14:18:12;7.20;;;5.15;;
65045;SDS011;54657;52.022;5.534;2023-04-05T14:20:37;8.80;;;5.55;;
65045;SDS011;54657;52.022;5.534;2023-04-05T14:23:03;6.80;;;5.30;;
65045;SDS011;54657;52.022;5.534;2023-04-05T14:25:29;11.68;;;5.38;;
65045;SDS011;54657;52.022;5.534;2023-04-05T14:27:54;5.55;;;4.95;;
65045;SDS011;54657;52.022;5.534;2023-04-05T14:30:20;8.23;;;5.15;;
65045;SDS011;54657;52.022;5.534;2023-04-05T14:32:45;6.10;;;5.28;;
65045;SDS011;54657;52.022;5.534;2023-04-05T14:35:11;7.90;;;5.47;;
65045;SDS011;54657;52.022;5.534;2023-04-05T14:37:36;8.60;;;5.65;;
65045;SDS011;54657;52.022;5.534;2023-04-05T14:40:02;8.77;;;5.40;;
65045;SDS011;54657;52.022;5.534;2023-04-05T14:42:28;6.22;;;5.10;;
65045;SDS011;54657;52.022;5.534;2023-04-05T14:44:53;6.40;;;5.07;;
65045;SDS011;54657;52.022;5.534;2023-04-05T14:47:19;8.73;;;6.07;;
65045;SDS011;54657;52.022;5.534;2023-04-05T14:49:45;7.57;;;5.18;;
65045;SDS011;54657;52.022;5.534;2023-04-05T14:52:11;7.13;;;6.00;;
65045;SDS011;54657;52.022;5.534;2023-04-05T14:54:36;8.88;;;5.55;;
65045;SDS011;54657;52.022;5.534;2023-04-05T14:57:02;9.77;;;5.43;;
65045;SDS011;54657;52.022;5.534;2023-04-05T14:59:27;6.97;;;5.43;;
65045;SDS011;54657;52.022;5.534;2023-04-05T15:01:54;8.68;;;5.45;;
65045;SDS011;54657;52.022;5.534;2023-04-05T15:04:20;8.35;;;5.70;;
65045;SDS011;54657;52.022;5.534;2023-04-05T15:06:45;6.25;;;5.47;;
65045;SDS011;54657;52.022;5.534;2023-04-05T15:09:11;8.93;;;5.78;;
65045;SDS011;54657;52.022;5.534;2023-04-05T15:11:40;6.00;;;5.40;;
65045;SDS011;54657;52.022;5.534;2023-04-05T15:14:08;6.82;;;5.30;;
65045;SDS011;54657;52.022;5.534;2023-04-05T15:16:36;7.40;;;5.43;;
65045;SDS011;54657;52.022;5.534;2023-04-05T15:19:02;6.30;;;5.03;;
65045;SDS011;54657;52.022;5.534;2023-04-05T15:21:36;7.38;;;5.38;;
65045;SDS011;54657;52.022;5.534;2023-04-05T15:27:42;5.80;;;5.20;;